sensor_id;sensor_type;location;lat;lon;timestamp;P1;durP1;ratioP1;P2;durP2;ratioP2
22675;SDS011;12521;43.310;21.876;2023-04-15T00:04:19;12.0;;;5.0;;
22675;SDS011;12521;43.310;21.876;2023-04-15T00:08:56;12.0;;;5.0;;
22675;SDS011;12521;43.310;21.876;2023-04-15T00:13:33;9.0;;;4.0;;
22675;SDS011;12521;43.310;21.876;2023-04-15T00:18:10;9.0;;;4.0;;
22675;SDS011;12521;43.310;21.876;2023-04-15T00:22:47;6.0;;;4.0;;
22675;SDS011;12521;43.310;21.876;2023-04-15T00:27:24;6.0;;;4.0;;
22675;SDS011;12521;43.310;21.876;2023-04-15T00:32:00;5.0;;;4.0;;
22675;SDS011;12521;43.310;21.876;2023-04-15T00:36:37;5.0;;;4.0;;
22675;SDS011;12521;43.310;21.876;2023-04-15T00:41:14;4.0;;;3.0;;
22675;SDS011;12521;43.310;21.876;2023-04-15T00:45:55;4.0;;;3.0;;
22675;SDS011;12521;43.310;21.876;2023-04-15T00:50:39;4.0;;;3.0;;
22675;SDS011;12521;43.310;21.876;2023-04-15T00:55:16;4.0;;;3.0;;
22675;SDS011;12521;43.310;21.876;2023-04-15T00:59:55;4.0;;;3.0;;
22675;SDS011;12521;43.310;21.876;2023-04-15T01:04:35;5.0;;;3.0;;
22675;SDS011;12521;43.310;21.876;2023-04-15T01:09:13;5.0;;;3.0;;
22675;SDS011;12521;43.310;21.876;2023-04-15T01:13:50;6.0;;;3.0;;
22675;SDS011;12521;43.310;21.876;2023-04-15T01:18:30;6.0;;;3.0;;
22675;SDS011;12521;43.310;21.876;2023-04-15T01:23:09;6.0;;;3.0;;
22675;SDS011;12521;43.310;21.876;2023-04-15T01:27:45;6.0;;;3.0;;
22675;SDS011;12521;43.310;21.876;2023-04-15T01:32:23;6.0;;;3.0;;
22675;SDS011;12521;43.310;21.876;2023-04-15T01:37:00;6.0;;;3.0;;
22675;SDS011;12521;43.310;21.876;2023-04-15T01:41:36;5.0;;;3.0;;
22675;SDS011;12521;43.310;21.876;2023-04-15T01:46:13;5.0;;;3.0;;
22675;SDS011;12521;43.310;21.876;2023-04-15T01:50:49;4.0;;;2.0;;
22675;SDS011;12521;43.310;21.876;2023-04-15T01:55:29;4.0;;;2.0;;
22675;SDS011;12521;43.310;21.876;2023-04-15T02:00:07;3.0;;;2.0;;
22675;SDS011;12521;43.310;21.876;2023-04-15T02:04:45;3.0;;;2.0;;
22675;SDS011;12521;43.310;21.876;2023-04-15T02:09:22;3.0;;;2.0;;
22675;SDS011;12521;43.310;21.876;2023-04-15T02:13:58;6.0;;;4.0;;
22675;SDS011;12521;43.310;21.876;2023-04-15T02:18:35;6.0;;;4.0;;
22675;SDS011;12521;43.310;21.876;2023-04-15T02:23:12;10.0;;;6.0;;
22675;SDS011;12521;43.310;21.876;2023-04-15T02:27:49;10.0;;;6.0;;
22675;SDS011;12521;43.310;21.876;2023-04-15T02:32:25;8.0;;;6.0;;
22675;SDS011;12521;43.310;21.876;2023-04-15T02:37:02;8.0;;;6.0;;
22675;SDS011;12521;43.310;21.876;2023-04-15T02:41:39;7.0;;;6.0;;
22675;SDS011;12521;43.310;21.876;2023-04-15T02:46:15;7.0;;;6.0;;
22675;SDS011;12521;43.310;21.876;2023-04-15T02:50:52;6.0;;;6.0;;
22675;SDS011;12521;43.310;21.876;2023-04-15T02:55:49;6.0;;;6.0;;
22675;SDS011;12521;43.310;21.876;2023-04-15T03:00:26;5.0;;;5.0;;
22675;SDS011;12521;43.310;21.876;2023-04-15T03:05:05;5.0;;;5.0;;
22675;SDS011;12521;43.310;21.876;2023-04-15T03:09:49;5.0;;;5.0;;
22675;SDS011;12521;43.310;21.876;2023-04-15T03:14:26;6.0;;;5.0;;
22675;SDS011;12521;43.310;21.876;2023-04-15T03:19:03;6.0;;;5.0;;
22675;SDS011;12521;43.310;21.876;2023-04-15T03:23:39;6.0;;;5.0;;
22675;SDS011;12521;43.310;21.876;2023-04-15T03:28:16;6.0;;;5.0;;
22675;SDS011;12521;43.310;21.876;2023-04-15T03:32:53;8.0;;;6.0;;
22675;SDS011;12521;43.310;21.876;2023-04-15T03:37:30;8.0;;;6.0;;
22675;SDS011;12521;43.310;21.876;2023-04-15T03:42:06;9.0;;;8.0;;
22675;SDS011;12521;43.310;21.876;2023-04-15T03:46:43;9.0;;;8.0;;
22675;SDS011;12521;43.310;21.876;2023-04-15T03:51:20;8.0;;;6.0;;
22675;SDS011;12521;43.310;21.876;2023-04-15T03:55:56;8.0;;;6.0;;
22675;SDS011;12521;43.310;21.876;2023-04-15T04:00:33;6.0;;;5.0;;
22675;SDS011;12521;43.310;21.876;2023-04-15T04:05:09;6.0;;;5.0;;
22675;SDS011;12521;43.310;21.876;2023-04-15T04:09:46;6.0;;;5.0;;
22675;SDS011;12521;43.310;21.876;2023-04-15T04:14:22;6.0;;;4.0;;
22675;SDS011;12521;43.310;21.876;2023-04-15T04:18:59;6.0;;;4.0;;
22675;SDS011;12521;43.310;21.876;2023-04-15T04:23:35;5.0;;;4.0;;
22675;SDS011;12521;43.310;21.876;2023-04-15T04:28:12;5.0;;;4.0;;
22675;SDS011;12521;43.310;21.876;2023-04-15T04:32:49;6.0;;;5.0;;
22675;SDS011;12521;43.310;21.876;2023-04-15T04:37:25;6.0;;;5.0;;
22675;SDS011;12521;43.310;21.876;2023-04-15T04:42:02;7.0;;;6.0;;
22675;SDS011;12521;43.310;21.876;2023-04-15T04:46:38;7.0;;;6.0;;
22675;SDS011;12521;43.310;21.876;2023-04-15T04:51:14;11.0;;;8.0;;
22675;SDS011;12521;43.310;21.876;2023-04-15T04:55:51;11.0;;;8.0;;
22675;SDS011;12521;43.310;21.876;2023-04-15T05:00:28;15.0;;;11.0;;
22675;SDS011;12521;43.310;21.876;2023-04-15T05:05:05;15.0;;;11.0;;
22675;SDS011;12521;43.310;21.876;2023-04-15T05:09:45;15.0;;;11.0;;
22675;SDS011;12521;43.310;21.876;2023-04-15T05:14:21;14.0;;;11.0;;
22675;SDS011;12521;43.310;21.876;2023-04-15T05:18:58;14.0;;;11.0;;
22675;SDS011;12521;43.310;21.876;2023-04-15T05:23:35;13.0;;;11.0;;
22675;SDS011;12521;43.310;21.876;2023-04-15T05:28:11;13.0;;;11.0;;
22675;SDS011;12521;43.310;21.876;2023-04-15T05:32:49;13.0;;;10.0;;
22675;SDS011;12521;43.310;21.876;2023-04-15T05:37:26;13.0;;;10.0;;
22675;SDS011;12521;43.310;21.876;2023-04-15T05:42:03;13.0;;;10.0;;
22675;SDS011;12521;43.310;21.876;2023-04-15T05:46:40;13.0;;;10.0;;
22675;SDS011;12521;43.310;21.876;2023-04-15T05:51:17;15.0;;;12.0;;
22675;SDS011;12521;43.310;21.876;2023-04-15T05:55:54;15.0;;;12.0;;
22675;SDS011;12521;43.310;21.876;2023-04-15T06:00:31;17.0;;;13.0;;
22675;SDS011;12521;43.310;21.876;2023-04-15T06:05:08;17.0;;;13.0;;
22675;SDS011;12521;43.310;21.876;2023-04-15T06:09:45;17.0;;;13.0;;
22675;SDS011;12521;43.310;21.876;2023-04-15T06:14:22;14.0;;;12.0;;
22675;SDS011;12521;43.310;21.876;2023-04-15T06:18:59;14.0;;;12.0;;
22675;SDS011;12521;43.310;21.876;2023-04-15T06:23:36;12.0;;;10.0;;
22675;SDS011;12521;43.310;21.876;2023-04-15T06:28:13;12.0;;;10.0;;
22675;SDS011;12521;43.310;21.876;2023-04-15T06:32:49;14.0;;;10.0;;
22675;SDS011;12521;43.310;21.876;2023-04-15T06:37:26;14.0;;;10.0;;
22675;SDS011;12521;43.310;21.876;2023-04-15T06:42:03;17.0;;;11.0;;
22675;SDS011;12521;43.310;21.876;2023-04-15T06:46:40;17.0;;;11.0;;
22675;SDS011;12521;43.310;21.876;2023-04-15T06:51:17;14.0;;;10.0;;
22675;SDS011;12521;43.310;21.876;2023-04-15T06:55:53;14.0;;;10.0;;
22675;SDS011;12521;43.310;21.876;2023-04-15T07:00:31;12.0;;;10.0;;
22675;SDS011;12521;43.310;21.876;2023-04-15T07:05:08;12.0;;;10.0;;
22675;SDS011;12521;43.310;21.876;2023-04-15T07:09:44;12.0;;;10.0;;
22675;SDS011;12521;43.310;21.876;2023-04-15T07:14:20;12.0;;;10.0;;
22675;SDS011;12521;43.310;21.876;2023-04-15T07:18:57;12.0;;;10.0;;
22675;SDS011;12521;43.310;21.876;2023-04-15T07:23:33;11.0;;;10.0;;
22675;SDS011;12521;43.310;21.876;2023-04-15T07:28:10;11.0;;;10.0;;
22675;SDS011;12521;43.310;21.876;2023-04-15T07:32:46;9.0;;;8.0;;
22675;SDS011;12521;43.310;21.876;2023-04-15T07:37:22;9.0;;;8.0;;
22675;SDS011;12521;43.310;21.876;2023-04-15T07:41:59;7.0;;;6.0;;
22675;SDS011;12521;43.310;21.876;2023-04-15T07:46:35;7.0;;;6.0;;
22675;SDS011;12521;43.310;21.876;2023-04-15T07:51:12;6.0;;;5.0;;
22675;SDS011;12521;43.310;21.876;2023-04-15T07:55:49;6.0;;;5.0;;
22675;SDS011;12521;43.310;21.876;2023-04-15T08:00:25;6.0;;;4.0;;
22675;SDS011;12521;43.310;21.876;2023-04-15T08:05:02;6.0;;;4.0;;
22675;SDS011;12521;43.310;21.876;2023-04-15T08:09:42;6.0;;;4.0;;
22675;SDS011;12521;43.310;21.876;2023-04-15T08:14:20;8.0;;;5.0;;
22675;SDS011;12521;43.310;21.876;2023-04-15T08:18:58;8.0;;;5.0;;
22675;SDS011;12521;43.310;21.876;2023-04-15T08:23:36;11.0;;;6.0;;
22675;SDS011;12521;43.310;21.876;2023-04-15T08:28:14;11.0;;;6.0;;
22675;SDS011;12521;43.310;21.876;2023-04-15T08:32:51;8.0;;;5.0;;
22675;SDS011;12521;43.310;21.876;2023-04-15T08:37:28;8.0;;;5.0;;
22675;SDS011;12521;43.310;21.876;2023-04-15T08:42:11;5.0;;;4.0;;
22675;SDS011;12521;43.310;21.876;2023-04-15T08:47:13;5.0;;;4.0;;
22675;SDS011;12521;43.310;21.876;2023-04-15T08:52:02;6.0;;;4.0;;
22675;SDS011;12521;43.310;21.876;2023-04-15T08:56:41;6.0;;;4.0;;
22675;SDS011;12521;43.310;21.876;2023-04-15T09:01:19;6.0;;;3.0;;
22675;SDS011;12521;43.310;21.876;2023-04-15T09:05:58;6.0;;;3.0;;
22675;SDS011;12521;43.310;21.876;2023-04-15T09:10:38;7.0;;;4.0;;
22675;SDS011;12521;43.310;21.876;2023-04-15T09:15:16;7.0;;;4.0;;
22675;SDS011;12521;43.310;21.876;2023-04-15T09:20:07;7.0;;;4.0;;
22675;SDS011;12521;43.310;21.876;2023-04-15T09:24:51;8.0;;;5.0;;
22675;SDS011;12521;43.310;21.876;2023-04-15T09:29:27;8.0;;;5.0;;
22675;SDS011;12521;43.310;21.876;2023-04-15T09:34:05;6.0;;;4.0;;
22675;SDS011;12521;43.310;21.876;2023-04-15T09:38:54;6.0;;;4.0;;
22675;SDS011;12521;43.310;21.876;2023-04-15T09:43:39;4.0;;;2.0;;
22675;SDS011;12521;43.310;21.876;2023-04-15T09:48:19;4.0;;;2.0;;
22675;SDS011;12521;43.310;21.876;2023-04-15T09:53:02;4.0;;;2.0;;
22675;SDS011;12521;43.310;21.876;2023-04-15T09:57:40;4.0;;;2.0;;
22675;SDS011;12521;43.310;21.876;2023-04-15T10:02:18;4.0;;;3.0;;
22675;SDS011;12521;43.310;21.876;2023-04-15T10:06:56;4.0;;;3.0;;
22675;SDS011;12521;43.310;21.876;2023-04-15T10:11:35;4.0;;;3.0;;
22675;SDS011;12521;43.310;21.876;2023-04-15T10:16:14;4.0;;;3.0;;
22675;SDS011;12521;43.310;21.876;2023-04-15T10:21:02;4.0;;;3.0;;
22675;SDS011;12521;43.310;21.876;2023-04-15T10:25:45;4.0;;;3.0;;
22675;SDS011;12521;43.310;21.876;2023-04-15T10:30:26;4.0;;;3.0;;
22675;SDS011;12521;43.310;21.876;2023-04-15T10:35:05;4.0;;;3.0;;
22675;SDS011;12521;43.310;21.876;2023-04-15T10:39:45;4.0;;;3.0;;
22675;SDS011;12521;43.310;21.876;2023-04-15T10:44:22;5.0;;;3.0;;
22675;SDS011;12521;43.310;21.876;2023-04-15T10:49:07;5.0;;;3.0;;
22675;SDS011;12521;43.310;21.876;2023-04-15T10:53:59;4.0;;;2.0;;
22675;SDS011;12521;43.310;21.876;2023-04-15T10:58:41;4.0;;;2.0;;
22675;SDS011;12521;43.310;21.876;2023-04-15T11:03:37;3.0;;;2.0;;
22675;SDS011;12521;43.310;21.876;2023-04-15T11:08:53;3.0;;;2.0;;
22675;SDS011;12521;43.310;21.876;2023-04-15T11:13:35;16.0;;;12.0;;
22675;SDS011;12521;43.310;21.876;2023-04-15T11:18:32;16.0;;;12.0;;
22675;SDS011;12521;43.310;21.876;2023-04-15T11:23:11;29.0;;;21.0;;
22675;SDS011;12521;43.310;21.876;2023-04-15T11:27:54;29.0;;;21.0;;
22675;SDS011;12521;43.310;21.876;2023-04-15T11:32:35;21.0;;;16.0;;
22675;SDS011;12521;43.310;21.876;2023-04-15T11:37:16;21.0;;;16.0;;
22675;SDS011;12521;43.310;21.876;2023-04-15T11:42:16;13.0;;;10.0;;
22675;SDS011;12521;43.310;21.876;2023-04-15T11:46:54;13.0;;;10.0;;
22675;SDS011;12521;43.310;21.876;2023-04-15T11:51:32;10.0;;;7.0;;
22675;SDS011;12521;43.310;21.876;2023-04-15T11:56:17;10.0;;;7.0;;
22675;SDS011;12521;43.310;21.876;2023-04-15T12:01:00;6.0;;;4.0;;
22675;SDS011;12521;43.310;21.876;2023-04-15T12:06:06;6.0;;;4.0;;
22675;SDS011;12521;43.310;21.876;2023-04-15T12:10:58;11.0;;;8.0;;
22675;SDS011;12521;43.310;21.876;2023-04-15T12:15:36;11.0;;;8.0;;
22675;SDS011;12521;43.310;21.876;2023-04-15T12:20:13;11.0;;;8.0;;
22675;SDS011;12521;43.310;21.876;2023-04-15T12:25:00;16.0;;;11.0;;
22675;SDS011;12521;43.310;21.876;2023-04-15T12:29:39;16.0;;;11.0;;
22675;SDS011;12521;43.310;21.876;2023-04-15T12:34:26;21.0;;;13.0;;
22675;SDS011;12521;43.310;21.876;2023-04-15T12:39:08;21.0;;;13.0;;
22675;SDS011;12521;43.310;21.876;2023-04-15T12:43:44;26.0;;;15.0;;
22675;SDS011;12521;43.310;21.876;2023-04-15T12:48:21;26.0;;;15.0;;
22675;SDS011;12521;43.310;21.876;2023-04-15T12:52:57;15.0;;;8.0;;
22675;SDS011;12521;43.310;21.876;2023-04-15T12:57:33;15.0;;;8.0;;
22675;SDS011;12521;43.310;21.876;2023-04-15T13:02:10;4.0;;;2.0;;
22675;SDS011;12521;43.310;21.876;2023-04-15T13:06:46;4.0;;;2.0;;
22675;SDS011;12521;43.310;21.876;2023-04-15T13:11:24;6.0;;;4.0;;
22675;SDS011;12521;43.310;21.876;2023-04-15T13:16:01;6.0;;;4.0;;
22675;SDS011;12521;43.310;21.876;2023-04-15T13:20:37;6.0;;;4.0;;
22675;SDS011;12521;43.310;21.876;2023-04-15T13:25:14;8.0;;;5.0;;
22675;SDS011;12521;43.310;21.876;2023-04-15T13:29:51;8.0;;;5.0;;
22675;SDS011;12521;43.310;21.876;2023-04-15T13:34:29;8.0;;;6.0;;
22675;SDS011;12521;43.310;21.876;2023-04-15T13:39:07;8.0;;;6.0;;
22675;SDS011;12521;43.310;21.876;2023-04-15T13:43:44;7.0;;;6.0;;
22675;SDS011;12521;43.310;21.876;2023-04-15T13:48:21;7.0;;;6.0;;
22675;SDS011;12521;43.310;21.876;2023-04-15T13:52:58;6.0;;;4.0;;
22675;SDS011;12521;43.310;21.876;2023-04-15T13:57:35;6.0;;;4.0;;
22675;SDS011;12521;43.310;21.876;2023-04-15T14:02:12;5.0;;;3.0;;
22675;SDS011;12521;43.310;21.876;2023-04-15T14:06:49;5.0;;;3.0;;
22675;SDS011;12521;43.310;21.876;2023-04-15T14:11:26;4.0;;;3.0;;
22675;SDS011;12521;43.310;21.876;2023-04-15T14:16:04;4.0;;;3.0;;
22675;SDS011;12521;43.310;21.876;2023-04-15T14:20:42;4.0;;;3.0;;
22675;SDS011;12521;43.310;21.876;2023-04-15T14:25:19;4.0;;;3.0;;
22675;SDS011;12521;43.310;21.876;2023-04-15T14:29:55;4.0;;;3.0;;
22675;SDS011;12521;43.310;21.876;2023-04-15T14:34:32;4.0;;;2.0;;
22675;SDS011;12521;43.310;21.876;2023-04-15T14:39:10;4.0;;;2.0;;
22675;SDS011;12521;43.310;21.876;2023-04-15T14:43:48;4.0;;;2.0;;
22675;SDS011;12521;43.310;21.876;2023-04-15T14:48:25;4.0;;;2.0;;
22675;SDS011;12521;43.310;21.876;2023-04-15T14:53:03;4.0;;;2.0;;
22675;SDS011;12521;43.310;21.876;2023-04-15T14:57:41;4.0;;;2.0;;
22675;SDS011;12521;43.310;21.876;2023-04-15T15:02:18;5.0;;;3.0;;
22675;SDS011;12521;43.310;21.876;2023-04-15T15:06:54;5.0;;;3.0;;
22675;SDS011;12521;43.310;21.876;2023-04-15T15:11:31;4.0;;;2.0;;
22675;SDS011;12521;43.310;21.876;2023-04-15T15:16:07;4.0;;;2.0;;
22675;SDS011;12521;43.310;21.876;2023-04-15T15:20:44;4.0;;;2.0;;
22675;SDS011;12521;43.310;21.876;2023-04-15T15:25:21;3.0;;;2.0;;
22675;SDS011;12521;43.310;21.876;2023-04-15T15:29:58;3.0;;;2.0;;
22675;SDS011;12521;43.310;21.876;2023-04-15T15:34:34;4.0;;;2.0;;
22675;SDS011;12521;43.310;21.876;2023-04-15T15:39:10;4.0;;;2.0;;
22675;SDS011;12521;43.310;21.876;2023-04-15T15:43:47;5.0;;;3.0;;
22675;SDS011;12521;43.310;21.876;2023-04-15T15:48:24;5.0;;;3.0;;
22675;SDS011;12521;43.310;21.876;2023-04-15T15:53:00;6.0;;;3.0;;
22675;SDS011;12521;43.310;21.876;2023-04-15T15:57:37;6.0;;;3.0;;
22675;SDS011;12521;43.310;21.876;2023-04-15T16:02:14;7.0;;;3.0;;
22675;SDS011;12521;43.310;21.876;2023-04-15T16:06:51;7.0;;;3.0;;
22675;SDS011;12521;43.310;21.876;2023-04-15T16:11:28;12.0;;;6.0;;
22675;SDS011;12521;43.310;21.876;2023-04-15T16:16:06;12.0;;;6.0;;
22675;SDS011;12521;43.310;21.876;2023-04-15T16:20:43;12.0;;;6.0;;
22675;SDS011;12521;43.310;21.876;2023-04-15T16:25:20;16.0;;;8.0;;
22675;SDS011;12521;43.310;21.876;2023-04-15T16:29:57;16.0;;;8.0;;
22675;SDS011;12521;43.310;21.876;2023-04-15T16:34:34;14.0;;;8.0;;
22675;SDS011;12521;43.310;21.876;2023-04-15T16:39:11;14.0;;;8.0;;
22675;SDS011;12521;43.310;21.876;2023-04-15T16:43:48;12.0;;;8.0;;
22675;SDS011;12521;43.310;21.876;2023-04-15T16:48:25;12.0;;;8.0;;
22675;SDS011;12521;43.310;21.876;2023-04-15T16:53:02;16.0;;;12.0;;
22675;SDS011;12521;43.310;21.876;2023-04-15T16:57:39;16.0;;;12.0;;
22675;SDS011;12521;43.310;21.876;2023-04-15T17:02:16;21.0;;;16.0;;
22675;SDS011;12521;43.310;21.876;2023-04-15T17:06:53;21.0;;;16.0;;
22675;SDS011;12521;43.310;21.876;2023-04-15T17:11:30;36.0;;;26.0;;
22675;SDS011;12521;43.310;21.876;2023-04-15T17:16:08;36.0;;;26.0;;
22675;SDS011;12521;43.310;21.876;2023-04-15T17:20:44;36.0;;;26.0;;
22675;SDS011;12521;43.310;21.876;2023-04-15T17:25:21;50.0;;;35.0;;
22675;SDS011;12521;43.310;21.876;2023-04-15T17:29:58;50.0;;;35.0;;
22675;SDS011;12521;43.310;21.876;2023-04-15T17:34:34;49.0;;;34.0;;
22675;SDS011;12521;43.310;21.876;2023-04-15T17:39:12;49.0;;;34.0;;
22675;SDS011;12521;43.310;21.876;2023-04-15T17:43:48;48.0;;;33.0;;
22675;SDS011;12521;43.310;21.876;2023-04-15T17:48:25;48.0;;;33.0;;
22675;SDS011;12521;43.310;21.876;2023-04-15T17:53:02;51.0;;;36.0;;
22675;SDS011;12521;43.310;21.876;2023-04-15T17:57:38;51.0;;;36.0;;
22675;SDS011;12521;43.310;21.876;2023-04-15T18:02:15;54.0;;;38.0;;
22675;SDS011;12521;43.310;21.876;2023-04-15T18:06:51;54.0;;;38.0;;
22675;SDS011;12521;43.310;21.876;2023-04-15T18:11:27;47.0;;;35.0;;
22675;SDS011;12521;43.310;21.876;2023-04-15T18:16:04;47.0;;;35.0;;
22675;SDS011;12521;43.310;21.876;2023-04-15T18:20:40;47.0;;;35.0;;
22675;SDS011;12521;43.310;21.876;2023-04-15T18:25:17;40.0;;;32.0;;
22675;SDS011;12521;43.310;21.876;2023-04-15T18:29:54;40.0;;;32.0;;
22675;SDS011;12521;43.310;21.876;2023-04-15T18:34:30;50.0;;;38.0;;
22675;SDS011;12521;43.310;21.876;2023-04-15T18:39:07;50.0;;;38.0;;
22675;SDS011;12521;43.310;21.876;2023-04-15T18:43:44;60.0;;;45.0;;
22675;SDS011;12521;43.310;21.876;2023-04-15T18:48:20;60.0;;;45.0;;
22675;SDS011;12521;43.310;21.876;2023-04-15T18:52:57;60.0;;;46.0;;
22675;SDS011;12521;43.310;21.876;2023-04-15T18:57:34;60.0;;;46.0;;
22675;SDS011;12521;43.310;21.876;2023-04-15T19:02:11;59.0;;;47.0;;
22675;SDS011;12521;43.310;21.876;2023-04-15T19:06:48;59.0;;;47.0;;
22675;SDS011;12521;43.310;21.876;2023-04-15T19:11:26;59.0;;;50.0;;
22675;SDS011;12521;43.310;21.876;2023-04-15T19:16:03;59.0;;;50.0;;
22675;SDS011;12521;43.310;21.876;2023-04-15T19:20:40;59.0;;;50.0;;
22675;SDS011;12521;43.310;21.876;2023-04-15T19:25:18;59.0;;;53.0;;
22675;SDS011;12521;43.310;21.876;2023-04-15T19:29:55;59.0;;;53.0;;
22675;SDS011;12521;43.310;21.876;2023-04-15T19:34:32;58.0;;;50.0;;
22675;SDS011;12521;43.310;21.876;2023-04-15T19:39:09;58.0;;;50.0;;
22675;SDS011;12521;43.310;21.876;2023-04-15T19:43:46;58.0;;;47.0;;
22675;SDS011;12521;43.310;21.876;2023-04-15T19:48:23;58.0;;;47.0;;
22675;SDS011;12521;43.310;21.876;2023-04-15T19:53:01;49.0;;;40.0;;
22675;SDS011;12521;43.310;21.876;2023-04-15T19:57:37;49.0;;;40.0;;
22675;SDS011;12521;43.310;21.876;2023-04-15T20:02:14;40.0;;;33.0;;
22675;SDS011;12521;43.310;21.876;2023-04-15T20:06:51;40.0;;;33.0;;
22675;SDS011;12521;43.310;21.876;2023-04-15T20:11:29;44.0;;;38.0;;
22675;SDS011;12521;43.310;21.876;2023-04-15T20:16:05;44.0;;;38.0;;
22675;SDS011;12521;43.310;21.876;2023-04-15T20:20:42;44.0;;;38.0;;
22675;SDS011;12521;43.310;21.876;2023-04-15T20:25:19;49.0;;;42.0;;
22675;SDS011;12521;43.310;21.876;2023-04-15T20:29:55;49.0;;;42.0;;
22675;SDS011;12521;43.310;21.876;2023-04-15T20:34:31;50.0;;;40.0;;
22675;SDS011;12521;43.310;21.876;2023-04-15T20:39:08;50.0;;;40.0;;
22675;SDS011;12521;43.310;21.876;2023-04-15T20:43:44;50.0;;;39.0;;
22675;SDS011;12521;43.310;21.876;2023-04-15T20:48:20;50.0;;;39.0;;
22675;SDS011;12521;43.310;21.876;2023-04-15T20:52:58;48.0;;;39.0;;
22675;SDS011;12521;43.310;21.876;2023-04-15T20:57:34;48.0;;;39.0;;
22675;SDS011;12521;43.310;21.876;2023-04-15T21:02:10;45.0;;;39.0;;
22675;SDS011;12521;43.310;21.876;2023-04-15T21:06:47;45.0;;;39.0;;
22675;SDS011;12521;43.310;21.876;2023-04-15T21:11:23;45.0;;;39.0;;
22675;SDS011;12521;43.310;21.876;2023-04-15T21:15:59;45.0;;;39.0;;
22675;SDS011;12521;43.310;21.876;2023-04-15T21:20:36;45.0;;;39.0;;
22675;SDS011;12521;43.310;21.876;2023-04-15T21:34:27;54.0;;;37.0;;
22675;SDS011;12521;43.310;21.876;2023-04-15T21:39:05;54.0;;;37.0;;
22675;SDS011;12521;43.310;21.876;2023-04-15T21:43:42;54.0;;;37.0;;
22675;SDS011;12521;43.310;21.876;2023-04-15T21:48:20;54.0;;;37.0;;
22675;SDS011;12521;43.310;21.876;2023-04-15T21:52:57;48.0;;;36.0;;
22675;SDS011;12521;43.310;21.876;2023-04-15T21:57:34;48.0;;;36.0;;
22675;SDS011;12521;43.310;21.876;2023-04-15T22:02:10;41.0;;;35.0;;
22675;SDS011;12521;43.310;21.876;2023-04-15T22:06:47;41.0;;;35.0;;
22675;SDS011;12521;43.310;21.876;2023-04-15T22:11:25;42.0;;;34.0;;
22675;SDS011;12521;43.310;21.876;2023-04-15T22:16:02;42.0;;;34.0;;
22675;SDS011;12521;43.310;21.876;2023-04-15T22:20:39;42.0;;;34.0;;
22675;SDS011;12521;43.310;21.876;2023-04-15T22:25:16;44.0;;;34.0;;
22675;SDS011;12521;43.310;21.876;2023-04-15T22:29:53;44.0;;;34.0;;
22675;SDS011;12521;43.310;21.876;2023-04-15T22:34:30;40.0;;;33.0;;
22675;SDS011;12521;43.310;21.876;2023-04-15T22:39:07;40.0;;;33.0;;
22675;SDS011;12521;43.310;21.876;2023-04-15T22:43:45;35.0;;;32.0;;
22675;SDS011;12521;43.310;21.876;2023-04-15T22:48:22;35.0;;;32.0;;
22675;SDS011;12521;43.310;21.876;2023-04-15T22:52:58;34.0;;;30.0;;
22675;SDS011;12521;43.310;21.876;2023-04-15T22:57:35;34.0;;;30.0;;
22675;SDS011;12521;43.310;21.876;2023-04-15T23:02:11;32.0;;;29.0;;
22675;SDS011;12521;43.310;21.876;2023-04-15T23:06:48;32.0;;;29.0;;
22675;SDS011;12521;43.310;21.876;2023-04-15T23:11:24;32.0;;;27.0;;
22675;SDS011;12521;43.310;21.876;2023-04-15T23:16:01;32.0;;;27.0;;
22675;SDS011;12521;43.310;21.876;2023-04-15T23:20:38;32.0;;;27.0;;
22675;SDS011;12521;43.310;21.876;2023-04-15T23:25:14;32.0;;;25.0;;
22675;SDS011;12521;43.310;21.876;2023-04-15T23:29:51;32.0;;;25.0;;
22675;SDS011;12521;43.310;21.876;2023-04-15T23:34:27;34.0;;;26.0;;
22675;SDS011;12521;43.310;21.876;2023-04-15T23:39:03;34.0;;;26.0;;
22675;SDS011;12521;43.310;21.876;2023-04-15T23:43:40;36.0;;;27.0;;
22675;SDS011;12521;43.310;21.876;2023-04-15T23:48:16;36.0;;;27.0;;
22675;SDS011;12521;43.310;21.876;2023-04-15T23:52:53;28.0;;;20.0;;
22675;SDS011;12521;43.310;21.876;2023-04-15T23:57:30;28.0;;;20.0;;
